sensor_id;sensor_type;location;lat;lon;timestamp;P1;durP1;ratioP1;P2;durP2;ratioP2
61704;SDS011;47627;48.078;11.522;2023-12-20T00:02:07;5.00;;;2.78;;
61704;SDS011;47627;48.078;11.522;2023-12-20T00:04:32;5.57;;;3.38;;
61704;SDS011;47627;48.078;11.522;2023-12-20T00:06:57;8.73;;;3.95;;
61704;SDS011;47627;48.078;11.522;2023-12-20T00:09:22;5.25;;;3.47;;
61704;SDS011;47627;48.078;11.522;2023-12-20T00:11:48;5.70;;;3.38;;
61704;SDS011;47627;48.078;11.522;2023-12-20T00:14:13;5.50;;;3.03;;
61704;SDS011;47627;48.078;11.522;2023-12-20T00:16:38;4.28;;;3.45;;
61704;SDS011;47627;48.078;11.522;2023-12-20T00:19:03;3.20;;;2.85;;
61704;SDS011;47627;48.078;11.522;2023-12-20T00:21:29;4.03;;;2.67;;
61704;SDS011;47627;48.078;11.522;2023-12-20T00:23:54;2.72;;;2.22;;
61704;SDS011;47627;48.078;11.522;2023-12-20T00:26:19;3.25;;;2.10;;
61704;SDS011;47627;48.078;11.522;2023-12-20T00:28:44;3.17;;;2.28;;
61704;SDS011;47627;48.078;11.522;2023-12-20T00:31:09;2.50;;;2.10;;
61704;SDS011;47627;48.078;11.522;2023-12-20T00:33:34;2.25;;;2.05;;
61704;SDS011;47627;48.078;11.522;2023-12-20T00:36:00;2.50;;;2.03;;
61704;SDS011;47627;48.078;11.522;2023-12-20T00:38:25;2.55;;;1.90;;
61704;SDS011;47627;48.078;11.522;2023-12-20T00:40:50;1.95;;;1.60;;
61704;SDS011;47627;48.078;11.522;2023-12-20T00:43:15;3.30;;;1.80;;
61704;SDS011;47627;48.078;11.522;2023-12-20T00:45:41;2.47;;;1.85;;
61704;SDS011;47627;48.078;11.522;2023-12-20T00:48:06;2.72;;;1.92;;
61704;SDS011;47627;48.078;11.522;2023-12-20T00:50:31;2.50;;;1.88;;
61704;SDS011;47627;48.078;11.522;2023-12-20T00:52:57;2.15;;;1.80;;
61704;SDS011;47627;48.078;11.522;2023-12-20T00:55:22;2.17;;;1.83;;
61704;SDS011;47627;48.078;11.522;2023-12-20T00:57:47;2.00;;;1.77;;
61704;SDS011;47627;48.078;11.522;2023-12-20T01:00:12;2.47;;;1.90;;
61704;SDS011;47627;48.078;11.522;2023-12-20T01:02:38;2.38;;;2.00;;
61704;SDS011;47627;48.078;11.522;2023-12-20T01:05:03;2.15;;;1.85;;
61704;SDS011;47627;48.078;11.522;2023-12-20T01:07:29;2.85;;;1.90;;
61704;SDS011;47627;48.078;11.522;2023-12-20T01:09:54;2.63;;;2.05;;
61704;SDS011;47627;48.078;11.522;2023-12-20T01:12:19;3.33;;;2.30;;
61704;SDS011;47627;48.078;11.522;2023-12-20T01:14:45;3.35;;;2.10;;
61704;SDS011;47627;48.078;11.522;2023-12-20T01:17:10;4.47;;;2.72;;
61704;SDS011;47627;48.078;11.522;2023-12-20T01:19:36;3.88;;;2.42;;
61704;SDS011;47627;48.078;11.522;2023-12-20T01:22:01;3.42;;;2.28;;
61704;SDS011;47627;48.078;11.522;2023-12-20T01:24:26;2.47;;;2.10;;
61704;SDS011;47627;48.078;11.522;2023-12-20T01:26:51;2.22;;;1.70;;
61704;SDS011;47627;48.078;11.522;2023-12-20T01:29:16;2.67;;;1.77;;
61704;SDS011;47627;48.078;11.522;2023-12-20T01:31:42;2.63;;;1.77;;
61704;SDS011;47627;48.078;11.522;2023-12-20T01:34:07;4.20;;;2.13;;
61704;SDS011;47627;48.078;11.522;2023-12-20T01:36:32;3.70;;;2.08;;
61704;SDS011;47627;48.078;11.522;2023-12-20T01:38:57;2.03;;;1.83;;
61704;SDS011;47627;48.078;11.522;2023-12-20T01:41:22;1.98;;;1.55;;
61704;SDS011;47627;48.078;11.522;2023-12-20T01:43:48;2.00;;;1.60;;
61704;SDS011;47627;48.078;11.522;2023-12-20T01:46:13;2.80;;;1.55;;
61704;SDS011;47627;48.078;11.522;2023-12-20T01:48:39;3.72;;;1.95;;
61704;SDS011;47627;48.078;11.522;2023-12-20T01:51:06;2.10;;;1.90;;
61704;SDS011;47627;48.078;11.522;2023-12-20T01:53:31;1.92;;;1.58;;
61704;SDS011;47627;48.078;11.522;2023-12-20T01:55:57;2.25;;;1.67;;
61704;SDS011;47627;48.078;11.522;2023-12-20T01:58:23;2.75;;;1.50;;
61704;SDS011;47627;48.078;11.522;2023-12-20T02:00:49;2.28;;;1.50;;
61704;SDS011;47627;48.078;11.522;2023-12-20T02:03:14;1.90;;;1.50;;
61704;SDS011;47627;48.078;11.522;2023-12-20T02:05:40;2.63;;;1.77;;
61704;SDS011;47627;48.078;11.522;2023-12-20T02:08:06;3.38;;;1.58;;
61704;SDS011;47627;48.078;11.522;2023-12-20T02:10:31;2.17;;;1.50;;
61704;SDS011;47627;48.078;11.522;2023-12-20T02:12:57;1.92;;;1.50;;
61704;SDS011;47627;48.078;11.522;2023-12-20T02:15:22;2.35;;;1.70;;
61704;SDS011;47627;48.078;11.522;2023-12-20T02:17:47;3.20;;;1.75;;
61704;SDS011;47627;48.078;11.522;2023-12-20T02:20:13;1.30;;;1.10;;
61704;SDS011;47627;48.078;11.522;2023-12-20T02:22:38;1.63;;;1.45;;
61704;SDS011;47627;48.078;11.522;2023-12-20T02:25:03;2.88;;;1.42;;
61704;SDS011;47627;48.078;11.522;2023-12-20T02:27:29;1.67;;;1.40;;
61704;SDS011;47627;48.078;11.522;2023-12-20T02:29:55;1.67;;;1.20;;
61704;SDS011;47627;48.078;11.522;2023-12-20T02:32:20;1.77;;;1.30;;
61704;SDS011;47627;48.078;11.522;2023-12-20T02:34:48;1.95;;;1.38;;
61704;SDS011;47627;48.078;11.522;2023-12-20T02:37:14;3.15;;;1.20;;
61704;SDS011;47627;48.078;11.522;2023-12-20T02:39:39;2.22;;;1.20;;
61704;SDS011;47627;48.078;11.522;2023-12-20T02:42:04;1.60;;;1.13;;
61704;SDS011;47627;48.078;11.522;2023-12-20T02:44:29;1.98;;;1.40;;
61704;SDS011;47627;48.078;11.522;2023-12-20T02:46:55;1.92;;;1.30;;
61704;SDS011;47627;48.078;11.522;2023-12-20T02:49:20;2.17;;;1.20;;
61704;SDS011;47627;48.078;11.522;2023-12-20T02:51:45;2.00;;;1.27;;
61704;SDS011;47627;48.078;11.522;2023-12-20T02:54:11;1.20;;;1.10;;
61704;SDS011;47627;48.078;11.522;2023-12-20T02:56:37;1.67;;;1.15;;
61704;SDS011;47627;48.078;11.522;2023-12-20T02:59:02;2.45;;;1.35;;
61704;SDS011;47627;48.078;11.522;2023-12-20T03:01:30;2.00;;;1.30;;
61704;SDS011;47627;48.078;11.522;2023-12-20T03:03:55;1.77;;;1.33;;
61704;SDS011;47627;48.078;11.522;2023-12-20T03:06:20;2.53;;;1.35;;
61704;SDS011;47627;48.078;11.522;2023-12-20T03:08:46;2.40;;;1.52;;
61704;SDS011;47627;48.078;11.522;2023-12-20T03:11:11;2.50;;;1.30;;
61704;SDS011;47627;48.078;11.522;2023-12-20T03:13:36;3.70;;;1.70;;
61704;SDS011;47627;48.078;11.522;2023-12-20T03:16:07;2.70;;;1.58;;
61704;SDS011;47627;48.078;11.522;2023-12-20T03:18:32;2.97;;;1.70;;
61704;SDS011;47627;48.078;11.522;2023-12-20T03:20:58;3.25;;;1.80;;
61704;SDS011;47627;48.078;11.522;2023-12-20T03:23:24;2.40;;;1.80;;
61704;SDS011;47627;48.078;11.522;2023-12-20T03:25:49;1.67;;;1.27;;
61704;SDS011;47627;48.078;11.522;2023-12-20T03:28:14;2.35;;;1.10;;
61704;SDS011;47627;48.078;11.522;2023-12-20T03:30:40;1.50;;;1.15;;
61704;SDS011;47627;48.078;11.522;2023-12-20T03:33:05;1.80;;;1.45;;
61704;SDS011;47627;48.078;11.522;2023-12-20T03:35:32;1.20;;;0.98;;
61704;SDS011;47627;48.078;11.522;2023-12-20T03:37:57;2.50;;;1.13;;
61704;SDS011;47627;48.078;11.522;2023-12-20T03:40:25;2.00;;;1.00;;
61704;SDS011;47627;48.078;11.522;2023-12-20T03:42:50;1.25;;;1.08;;
61704;SDS011;47627;48.078;11.522;2023-12-20T03:45:16;0.73;;;0.70;;
61704;SDS011;47627;48.078;11.522;2023-12-20T03:47:41;0.70;;;0.70;;
61704;SDS011;47627;48.078;11.522;2023-12-20T03:50:06;0.93;;;0.70;;
61704;SDS011;47627;48.078;11.522;2023-12-20T03:52:31;0.80;;;0.80;;
61704;SDS011;47627;48.078;11.522;2023-12-20T03:54:57;1.27;;;0.70;;
61704;SDS011;47627;48.078;11.522;2023-12-20T03:57:22;0.98;;;0.73;;
61704;SDS011;47627;48.078;11.522;2023-12-20T03:59:47;0.60;;;0.60;;
61704;SDS011;47627;48.078;11.522;2023-12-20T04:02:12;0.73;;;0.73;;
61704;SDS011;47627;48.078;11.522;2023-12-20T04:04:37;2.15;;;0.60;;
61704;SDS011;47627;48.078;11.522;2023-12-20T04:07:03;1.35;;;0.73;;
61704;SDS011;47627;48.078;11.522;2023-12-20T04:09:28;1.23;;;0.68;;
61704;SDS011;47627;48.078;11.522;2023-12-20T04:11:53;0.70;;;0.70;;
61704;SDS011;47627;48.078;11.522;2023-12-20T04:14:18;1.23;;;0.70;;
61704;SDS011;47627;48.078;11.522;2023-12-20T04:16:44;1.08;;;0.98;;
61704;SDS011;47627;48.078;11.522;2023-12-20T04:19:09;0.95;;;0.88;;
61704;SDS011;47627;48.078;11.522;2023-12-20T04:21:34;0.90;;;0.80;;
61704;SDS011;47627;48.078;11.522;2023-12-20T04:23:59;2.05;;;0.90;;
61704;SDS011;47627;48.078;11.522;2023-12-20T04:26:25;0.70;;;0.70;;
61704;SDS011;47627;48.078;11.522;2023-12-20T04:28:50;2.25;;;1.02;;
61704;SDS011;47627;48.078;11.522;2023-12-20T04:31:15;1.25;;;1.00;;
61704;SDS011;47627;48.078;11.522;2023-12-20T04:33:40;0.95;;;0.90;;
61704;SDS011;47627;48.078;11.522;2023-12-20T04:36:06;2.08;;;1.20;;
61704;SDS011;47627;48.078;11.522;2023-12-20T04:38:31;1.10;;;0.98;;
61704;SDS011;47627;48.078;11.522;2023-12-20T04:40:56;1.23;;;1.08;;
61704;SDS011;47627;48.078;11.522;2023-12-20T04:43:22;1.98;;;1.40;;
61704;SDS011;47627;48.078;11.522;2023-12-20T04:45:47;1.27;;;1.17;;
61704;SDS011;47627;48.078;11.522;2023-12-20T04:48:13;1.40;;;1.27;;
61704;SDS011;47627;48.078;11.522;2023-12-20T04:50:38;1.40;;;1.30;;
61704;SDS011;47627;48.078;11.522;2023-12-20T04:53:03;2.17;;;1.42;;
61704;SDS011;47627;48.078;11.522;2023-12-20T04:55:28;1.52;;;1.42;;
61704;SDS011;47627;48.078;11.522;2023-12-20T04:57:54;1.60;;;1.50;;
61704;SDS011;47627;48.078;11.522;2023-12-20T05:00:19;2.10;;;1.55;;
61704;SDS011;47627;48.078;11.522;2023-12-20T05:02:45;1.50;;;1.40;;
61704;SDS011;47627;48.078;11.522;2023-12-20T05:05:10;1.75;;;1.63;;
61704;SDS011;47627;48.078;11.522;2023-12-20T05:07:35;1.63;;;1.52;;
61704;SDS011;47627;48.078;11.522;2023-12-20T05:10:01;2.45;;;1.77;;
61704;SDS011;47627;48.078;11.522;2023-12-20T05:12:26;2.60;;;2.17;;
61704;SDS011;47627;48.078;11.522;2023-12-20T05:14:54;2.13;;;1.73;;
61704;SDS011;47627;48.078;11.522;2023-12-20T05:17:19;3.35;;;2.20;;
61704;SDS011;47627;48.078;11.522;2023-12-20T05:19:45;2.60;;;2.10;;
61704;SDS011;47627;48.078;11.522;2023-12-20T05:22:10;2.35;;;2.15;;
61704;SDS011;47627;48.078;11.522;2023-12-20T05:24:36;2.60;;;2.10;;
61704;SDS011;47627;48.078;11.522;2023-12-20T05:27:01;3.92;;;2.35;;
61704;SDS011;47627;48.078;11.522;2023-12-20T05:29:26;2.47;;;2.08;;
61704;SDS011;47627;48.078;11.522;2023-12-20T05:31:51;3.28;;;2.30;;
61704;SDS011;47627;48.078;11.522;2023-12-20T05:34:17;4.05;;;1.90;;
61704;SDS011;47627;48.078;11.522;2023-12-20T05:36:42;2.83;;;2.33;;
61704;SDS011;47627;48.078;11.522;2023-12-20T05:39:07;2.97;;;2.00;;
61704;SDS011;47627;48.078;11.522;2023-12-20T05:41:32;2.03;;;1.85;;
61704;SDS011;47627;48.078;11.522;2023-12-20T05:43:58;2.83;;;2.13;;
61704;SDS011;47627;48.078;11.522;2023-12-20T05:46:23;2.55;;;1.88;;
61704;SDS011;47627;48.078;11.522;2023-12-20T05:48:48;4.10;;;2.20;;
61704;SDS011;47627;48.078;11.522;2023-12-20T05:51:14;2.33;;;2.13;;
61704;SDS011;47627;48.078;11.522;2023-12-20T05:53:39;3.40;;;1.88;;
61704;SDS011;47627;48.078;11.522;2023-12-20T05:56:05;2.35;;;2.10;;
61704;SDS011;47627;48.078;11.522;2023-12-20T05:58:32;2.20;;;1.95;;
61704;SDS011;47627;48.078;11.522;2023-12-20T06:00:57;3.70;;;2.03;;
61704;SDS011;47627;48.078;11.522;2023-12-20T06:03:22;2.47;;;2.28;;
61704;SDS011;47627;48.078;11.522;2023-12-20T06:05:48;2.03;;;1.77;;
61704;SDS011;47627;48.078;11.522;2023-12-20T06:08:13;2.78;;;1.88;;
61704;SDS011;47627;48.078;11.522;2023-12-20T06:10:38;3.42;;;2.30;;
61704;SDS011;47627;48.078;11.522;2023-12-20T06:13:04;4.10;;;2.13;;
61704;SDS011;47627;48.078;11.522;2023-12-20T06:15:32;3.55;;;2.00;;
61704;SDS011;47627;48.078;11.522;2023-12-20T06:17:58;2.10;;;1.90;;
61704;SDS011;47627;48.078;11.522;2023-12-20T06:20:23;2.10;;;1.90;;
61704;SDS011;47627;48.078;11.522;2023-12-20T06:22:48;3.75;;;2.03;;
61704;SDS011;47627;48.078;11.522;2023-12-20T06:25:13;2.45;;;1.98;;
61704;SDS011;47627;48.078;11.522;2023-12-20T06:27:39;2.70;;;2.50;;
61704;SDS011;47627;48.078;11.522;2023-12-20T06:30:06;3.20;;;2.90;;
61704;SDS011;47627;48.078;11.522;2023-12-20T06:32:32;2.20;;;1.90;;
61704;SDS011;47627;48.078;11.522;2023-12-20T06:34:57;1.92;;;1.60;;
61704;SDS011;47627;48.078;11.522;2023-12-20T06:37:22;3.33;;;1.92;;
61704;SDS011;47627;48.078;11.522;2023-12-20T06:39:47;2.58;;;1.73;;
61704;SDS011;47627;48.078;11.522;2023-12-20T06:42:12;3.53;;;1.85;;
61704;SDS011;47627;48.078;11.522;2023-12-20T06:44:38;2.80;;;2.03;;
61704;SDS011;47627;48.078;11.522;2023-12-20T06:47:04;2.05;;;1.58;;
61704;SDS011;47627;48.078;11.522;2023-12-20T06:49:29;3.53;;;1.90;;
61704;SDS011;47627;48.078;11.522;2023-12-20T06:51:54;2.17;;;1.55;;
61704;SDS011;47627;48.078;11.522;2023-12-20T06:54:19;3.45;;;2.05;;
61704;SDS011;47627;48.078;11.522;2023-12-20T06:56:45;3.50;;;2.65;;
61704;SDS011;47627;48.078;11.522;2023-12-20T06:59:10;2.78;;;2.03;;
61704;SDS011;47627;48.078;11.522;2023-12-20T07:01:35;1.77;;;1.17;;
61704;SDS011;47627;48.078;11.522;2023-12-20T07:04:01;2.60;;;1.80;;
61704;SDS011;47627;48.078;11.522;2023-12-20T07:06:26;2.28;;;1.90;;
61704;SDS011;47627;48.078;11.522;2023-12-20T07:08:52;2.00;;;1.67;;
61704;SDS011;47627;48.078;11.522;2023-12-20T07:11:17;2.42;;;1.80;;
61704;SDS011;47627;48.078;11.522;2023-12-20T07:13:42;2.53;;;2.20;;
61704;SDS011;47627;48.078;11.522;2023-12-20T07:16:07;6.75;;;5.70;;
61704;SDS011;47627;48.078;11.522;2023-12-20T07:18:33;3.75;;;2.38;;
61704;SDS011;47627;48.078;11.522;2023-12-20T07:20:58;1.30;;;1.20;;
61704;SDS011;47627;48.078;11.522;2023-12-20T07:23:24;4.13;;;3.70;;
61704;SDS011;47627;48.078;11.522;2023-12-20T07:25:50;1.63;;;1.52;;
61704;SDS011;47627;48.078;11.522;2023-12-20T07:28:16;2.65;;;2.42;;
61704;SDS011;47627;48.078;11.522;2023-12-20T07:30:41;2.35;;;1.50;;
61704;SDS011;47627;48.078;11.522;2023-12-20T07:33:06;2.80;;;2.60;;
61704;SDS011;47627;48.078;11.522;2023-12-20T07:35:33;2.15;;;1.63;;
61704;SDS011;47627;48.078;11.522;2023-12-20T07:37:59;1.48;;;1.38;;
61704;SDS011;47627;48.078;11.522;2023-12-20T07:40:24;1.48;;;1.38;;
61704;SDS011;47627;48.078;11.522;2023-12-20T07:42:50;2.42;;;2.22;;
61704;SDS011;47627;48.078;11.522;2023-12-20T07:45:15;1.85;;;1.40;;
61704;SDS011;47627;48.078;11.522;2023-12-20T07:47:40;2.75;;;2.47;;
61704;SDS011;47627;48.078;11.522;2023-12-20T07:50:06;1.88;;;1.70;;
61704;SDS011;47627;48.078;11.522;2023-12-20T07:52:31;2.10;;;1.60;;
61704;SDS011;47627;48.078;11.522;2023-12-20T07:54:56;1.30;;;1.20;;
61704;SDS011;47627;48.078;11.522;2023-12-20T07:57:22;1.63;;;1.52;;
61704;SDS011;47627;48.078;11.522;2023-12-20T07:59:47;2.00;;;1.88;;
61704;SDS011;47627;48.078;11.522;2023-12-20T08:02:12;1.80;;;1.70;;
61704;SDS011;47627;48.078;11.522;2023-12-20T08:04:37;1.40;;;1.30;;
61704;SDS011;47627;48.078;11.522;2023-12-20T08:07:03;2.17;;;1.80;;
61704;SDS011;47627;48.078;11.522;2023-12-20T08:09:29;1.60;;;1.50;;
61704;SDS011;47627;48.078;11.522;2023-12-20T08:11:54;1.30;;;1.20;;
61704;SDS011;47627;48.078;11.522;2023-12-20T08:14:20;2.95;;;1.58;;
61704;SDS011;47627;48.078;11.522;2023-12-20T08:16:45;3.60;;;3.33;;
61704;SDS011;47627;48.078;11.522;2023-12-20T08:19:10;2.22;;;1.52;;
61704;SDS011;47627;48.078;11.522;2023-12-20T08:21:35;3.47;;;1.80;;
61704;SDS011;47627;48.078;11.522;2023-12-20T08:24:01;2.70;;;1.58;;
61704;SDS011;47627;48.078;11.522;2023-12-20T08:26:26;1.30;;;1.05;;
61704;SDS011;47627;48.078;11.522;2023-12-20T08:28:51;1.17;;;0.90;;
61704;SDS011;47627;48.078;11.522;2023-12-20T08:31:17;1.48;;;1.17;;
61704;SDS011;47627;48.078;11.522;2023-12-20T08:33:46;2.33;;;1.10;;
61704;SDS011;47627;48.078;11.522;2023-12-20T08:36:12;1.00;;;1.00;;
61704;SDS011;47627;48.078;11.522;2023-12-20T08:38:37;2.78;;;1.10;;
61704;SDS011;47627;48.078;11.522;2023-12-20T08:41:03;1.38;;;1.23;;
61704;SDS011;47627;48.078;11.522;2023-12-20T08:43:30;0.85;;;0.80;;
61704;SDS011;47627;48.078;11.522;2023-12-20T08:45:55;1.58;;;0.95;;
61704;SDS011;47627;48.078;11.522;2023-12-20T08:48:21;2.78;;;0.93;;
61704;SDS011;47627;48.078;11.522;2023-12-20T08:50:46;1.88;;;1.30;;
61704;SDS011;47627;48.078;11.522;2023-12-20T08:53:13;2.80;;;1.15;;
61704;SDS011;47627;48.078;11.522;2023-12-20T08:55:40;0.90;;;0.80;;
61704;SDS011;47627;48.078;11.522;2023-12-20T08:58:05;1.55;;;1.00;;
61704;SDS011;47627;48.078;11.522;2023-12-20T09:00:32;1.35;;;1.10;;
61704;SDS011;47627;48.078;11.522;2023-12-20T09:02:57;1.00;;;0.90;;
61704;SDS011;47627;48.078;11.522;2023-12-20T09:05:22;0.90;;;0.88;;
61704;SDS011;47627;48.078;11.522;2023-12-20T09:07:47;0.73;;;0.73;;
61704;SDS011;47627;48.078;11.522;2023-12-20T09:10:12;2.80;;;0.80;;
61704;SDS011;47627;48.078;11.522;2023-12-20T09:12:38;0.93;;;0.80;;
61704;SDS011;47627;48.078;11.522;2023-12-20T09:15:05;0.70;;;0.70;;
61704;SDS011;47627;48.078;11.522;2023-12-20T09:17:31;0.90;;;0.90;;
61704;SDS011;47627;48.078;11.522;2023-12-20T09:19:56;1.10;;;1.00;;
61704;SDS011;47627;48.078;11.522;2023-12-20T09:22:21;0.80;;;0.80;;
61704;SDS011;47627;48.078;11.522;2023-12-20T09:24:46;1.10;;;1.00;;
61704;SDS011;47627;48.078;11.522;2023-12-20T09:27:12;1.98;;;0.90;;
61704;SDS011;47627;48.078;11.522;2023-12-20T09:29:37;1.05;;;0.90;;
61704;SDS011;47627;48.078;11.522;2023-12-20T09:32:02;1.13;;;0.80;;
61704;SDS011;47627;48.078;11.522;2023-12-20T09:34:28;0.70;;;0.70;;
61704;SDS011;47627;48.078;11.522;2023-12-20T09:36:53;2.50;;;1.10;;
61704;SDS011;47627;48.078;11.522;2023-12-20T09:39:19;0.93;;;0.88;;
61704;SDS011;47627;48.078;11.522;2023-12-20T09:41:45;1.20;;;1.05;;
61704;SDS011;47627;48.078;11.522;2023-12-20T09:44:15;2.58;;;1.02;;
61704;SDS011;47627;48.078;11.522;2023-12-20T09:46:43;1.00;;;1.00;;
61704;SDS011;47627;48.078;11.522;2023-12-20T09:49:08;1.55;;;1.13;;
61704;SDS011;47627;48.078;11.522;2023-12-20T09:51:33;2.75;;;1.00;;
61704;SDS011;47627;48.078;11.522;2023-12-20T09:53:59;0.77;;;0.75;;
61704;SDS011;47627;48.078;11.522;2023-12-20T09:56:27;1.25;;;1.15;;
61704;SDS011;47627;48.078;11.522;2023-12-20T09:58:52;1.90;;;0.82;;
61704;SDS011;47627;48.078;11.522;2023-12-20T10:01:19;1.63;;;1.10;;
61704;SDS011;47627;48.078;11.522;2023-12-20T10:03:44;1.42;;;1.33;;
61704;SDS011;47627;48.078;11.522;2023-12-20T10:06:10;0.98;;;0.98;;
61704;SDS011;47627;48.078;11.522;2023-12-20T10:08:35;1.75;;;1.20;;
61704;SDS011;47627;48.078;11.522;2023-12-20T10:11:00;1.30;;;1.20;;
61704;SDS011;47627;48.078;11.522;2023-12-20T10:13:28;1.75;;;1.50;;
61704;SDS011;47627;48.078;11.522;2023-12-20T10:15:54;1.35;;;1.23;;
61704;SDS011;47627;48.078;11.522;2023-12-20T10:18:20;1.83;;;0.90;;
61704;SDS011;47627;48.078;11.522;2023-12-20T10:20:45;1.15;;;1.05;;
61704;SDS011;47627;48.078;11.522;2023-12-20T10:23:11;1.40;;;1.20;;
61704;SDS011;47627;48.078;11.522;2023-12-20T10:25:36;1.20;;;1.10;;
61704;SDS011;47627;48.078;11.522;2023-12-20T10:28:10;3.03;;;1.13;;
61704;SDS011;47627;48.078;11.522;2023-12-20T10:30:36;3.22;;;1.00;;
61704;SDS011;47627;48.078;11.522;2023-12-20T10:33:01;2.85;;;1.13;;
61704;SDS011;47627;48.078;11.522;2023-12-20T10:35:26;1.20;;;1.10;;
61704;SDS011;47627;48.078;11.522;2023-12-20T10:37:52;1.42;;;1.00;;
61704;SDS011;47627;48.078;11.522;2023-12-20T10:40:20;0.85;;;0.82;;
61704;SDS011;47627;48.078;11.522;2023-12-20T10:42:45;1.02;;;0.95;;
61704;SDS011;47627;48.078;11.522;2023-12-20T10:45:11;1.08;;;0.88;;
61704;SDS011;47627;48.078;11.522;2023-12-20T10:47:36;1.23;;;1.13;;
61704;SDS011;47627;48.078;11.522;2023-12-20T10:50:02;1.15;;;0.80;;
61704;SDS011;47627;48.078;11.522;2023-12-20T10:52:30;2.08;;;1.08;;
61704;SDS011;47627;48.078;11.522;2023-12-20T10:54:57;1.15;;;1.00;;
61704;SDS011;47627;48.078;11.522;2023-12-20T10:57:22;1.10;;;1.00;;
61704;SDS011;47627;48.078;11.522;2023-12-20T10:59:48;1.02;;;0.90;;
61704;SDS011;47627;48.078;11.522;2023-12-20T11:02:14;0.90;;;0.90;;
61704;SDS011;47627;48.078;11.522;2023-12-20T11:04:55;2.08;;;0.95;;
61704;SDS011;47627;48.078;11.522;2023-12-20T11:12:47;0.93;;;0.90;;
61704;SDS011;47627;48.078;11.522;2023-12-20T11:15:14;1.20;;;1.10;;
61704;SDS011;47627;48.078;11.522;2023-12-20T11:17:40;1.67;;;0.80;;
61704;SDS011;47627;48.078;11.522;2023-12-20T11:20:06;1.17;;;1.08;;
61704;SDS011;47627;48.078;11.522;2023-12-20T11:22:32;1.27;;;1.17;;
61704;SDS011;47627;48.078;11.522;2023-12-20T11:24:59;1.42;;;1.00;;
61704;SDS011;47627;48.078;11.522;2023-12-20T11:27:27;2.08;;;1.00;;
61704;SDS011;47627;48.078;11.522;2023-12-20T11:29:54;1.30;;;1.20;;
61704;SDS011;47627;48.078;11.522;2023-12-20T11:34:54;3.08;;;1.25;;
61704;SDS011;47627;48.078;11.522;2023-12-20T11:37:19;1.50;;;1.40;;
61704;SDS011;47627;48.078;11.522;2023-12-20T11:39:44;1.35;;;1.25;;
61704;SDS011;47627;48.078;11.522;2023-12-20T11:42:10;2.28;;;1.30;;
61704;SDS011;47627;48.078;11.522;2023-12-20T11:44:36;2.55;;;2.35;;
61704;SDS011;47627;48.078;11.522;2023-12-20T11:47:01;2.63;;;1.60;;
61704;SDS011;47627;48.078;11.522;2023-12-20T11:49:26;1.83;;;1.63;;
61704;SDS011;47627;48.078;11.522;2023-12-20T11:51:54;1.60;;;1.50;;
61704;SDS011;47627;48.078;11.522;2023-12-20T11:54:19;1.33;;;1.23;;
61704;SDS011;47627;48.078;11.522;2023-12-20T11:56:45;2.42;;;1.30;;
61704;SDS011;47627;48.078;11.522;2023-12-20T11:59:10;2.13;;;1.25;;
61704;SDS011;47627;48.078;11.522;2023-12-20T12:01:36;1.80;;;1.70;;
61704;SDS011;47627;48.078;11.522;2023-12-20T12:04:02;2.65;;;1.27;;
61704;SDS011;47627;48.078;11.522;2023-12-20T12:06:27;2.55;;;1.70;;
61704;SDS011;47627;48.078;11.522;2023-12-20T12:08:54;1.77;;;1.45;;
61704;SDS011;47627;48.078;11.522;2023-12-20T12:11:19;1.25;;;1.15;;
61704;SDS011;47627;48.078;11.522;2023-12-20T12:13:44;2.83;;;1.58;;
61704;SDS011;47627;48.078;11.522;2023-12-20T12:16:09;1.55;;;1.45;;
61704;SDS011;47627;48.078;11.522;2023-12-20T12:18:35;2.90;;;1.73;;
61704;SDS011;47627;48.078;11.522;2023-12-20T12:21:01;2.13;;;1.98;;
61704;SDS011;47627;48.078;11.522;2023-12-20T12:23:27;1.65;;;1.55;;
61704;SDS011;47627;48.078;11.522;2023-12-20T12:25:52;2.60;;;2.40;;
61704;SDS011;47627;48.078;11.522;2023-12-20T12:28:20;2.83;;;2.55;;
61704;SDS011;47627;48.078;11.522;2023-12-20T12:30:58;2.58;;;1.77;;
61704;SDS011;47627;48.078;11.522;2023-12-20T12:33:24;1.50;;;1.40;;
61704;SDS011;47627;48.078;11.522;2023-12-20T12:35:49;3.10;;;2.17;;
61704;SDS011;47627;48.078;11.522;2023-12-20T12:38:15;2.50;;;1.98;;
61704;SDS011;47627;48.078;11.522;2023-12-20T12:40:40;2.20;;;1.95;;
61704;SDS011;47627;48.078;11.522;2023-12-20T12:43:08;2.00;;;1.80;;
61704;SDS011;47627;48.078;11.522;2023-12-20T12:45:33;2.00;;;1.80;;
61704;SDS011;47627;48.078;11.522;2023-12-20T12:47:58;1.52;;;1.42;;
61704;SDS011;47627;48.078;11.522;2023-12-20T12:50:24;1.77;;;1.67;;
61704;SDS011;47627;48.078;11.522;2023-12-20T12:52:49;2.13;;;1.98;;
61704;SDS011;47627;48.078;11.522;2023-12-20T12:55:14;2.88;;;1.77;;
61704;SDS011;47627;48.078;11.522;2023-12-20T12:57:39;2.50;;;2.30;;
61704;SDS011;47627;48.078;11.522;2023-12-20T13:00:09;1.67;;;1.58;;
61704;SDS011;47627;48.078;11.522;2023-12-20T13:02:34;2.08;;;1.60;;
61704;SDS011;47627;48.078;11.522;2023-12-20T13:04:59;2.03;;;1.60;;
61704;SDS011;47627;48.078;11.522;2023-12-20T13:07:26;3.00;;;1.70;;
61704;SDS011;47627;48.078;11.522;2023-12-20T13:09:52;2.20;;;1.73;;
61704;SDS011;47627;48.078;11.522;2023-12-20T13:12:17;3.65;;;1.38;;
61704;SDS011;47627;48.078;11.522;2023-12-20T13:14:42;2.25;;;1.73;;
61704;SDS011;47627;48.078;11.522;2023-12-20T13:17:07;2.17;;;1.67;;
61704;SDS011;47627;48.078;11.522;2023-12-20T13:19:32;2.88;;;2.00;;
61704;SDS011;47627;48.078;11.522;2023-12-20T13:21:58;2.20;;;2.00;;
61704;SDS011;47627;48.078;11.522;2023-12-20T13:24:23;1.98;;;1.77;;
61704;SDS011;47627;48.078;11.522;2023-12-20T13:26:48;2.40;;;2.20;;
61704;SDS011;47627;48.078;11.522;2023-12-20T13:29:14;2.50;;;2.10;;
61704;SDS011;47627;48.078;11.522;2023-12-20T13:31:39;3.28;;;2.20;;
61704;SDS011;47627;48.078;11.522;2023-12-20T13:34:05;3.22;;;2.60;;
61704;SDS011;47627;48.078;11.522;2023-12-20T13:36:30;3.70;;;2.10;;
61704;SDS011;47627;48.078;11.522;2023-12-20T13:38:55;2.47;;;2.03;;
61704;SDS011;47627;48.078;11.522;2023-12-20T13:41:21;3.10;;;2.42;;
61704;SDS011;47627;48.078;11.522;2023-12-20T13:43:46;4.10;;;2.10;;
61704;SDS011;47627;48.078;11.522;2023-12-20T13:46:12;4.43;;;2.30;;
61704;SDS011;47627;48.078;11.522;2023-12-20T13:48:38;5.13;;;2.35;;
61704;SDS011;47627;48.078;11.522;2023-12-20T13:51:04;7.65;;;2.78;;
61704;SDS011;47627;48.078;11.522;2023-12-20T13:53:29;5.25;;;2.90;;
61704;SDS011;47627;48.078;11.522;2023-12-20T13:55:54;4.22;;;2.80;;
61704;SDS011;47627;48.078;11.522;2023-12-20T13:58:19;5.78;;;3.10;;
61704;SDS011;47627;48.078;11.522;2023-12-20T14:00:45;4.45;;;2.70;;
61704;SDS011;47627;48.078;11.522;2023-12-20T14:03:10;6.43;;;3.33;;
61704;SDS011;47627;48.078;11.522;2023-12-20T14:05:36;6.13;;;3.55;;
61704;SDS011;47627;48.078;11.522;2023-12-20T14:08:01;6.65;;;3.10;;
61704;SDS011;47627;48.078;11.522;2023-12-20T14:10:26;6.00;;;2.90;;
61704;SDS011;47627;48.078;11.522;2023-12-20T14:12:52;4.68;;;3.28;;
61704;SDS011;47627;48.078;11.522;2023-12-20T14:15:17;9.05;;;3.70;;
61704;SDS011;47627;48.078;11.522;2023-12-20T14:17:42;5.47;;;3.13;;
61704;SDS011;47627;48.078;11.522;2023-12-20T14:20:08;3.45;;;2.88;;
61704;SDS011;47627;48.078;11.522;2023-12-20T14:22:33;5.95;;;3.28;;
61704;SDS011;47627;48.078;11.522;2023-12-20T14:24:59;4.95;;;2.90;;
61704;SDS011;47627;48.078;11.522;2023-12-20T14:27:24;4.70;;;3.10;;
61704;SDS011;47627;48.078;11.522;2023-12-20T14:29:52;4.43;;;2.90;;
61704;SDS011;47627;48.078;11.522;2023-12-20T14:32:18;6.20;;;3.70;;